Glen Eden, Indiana
Current Conditions -  °F | °C
As of 10:35 PM on Thursday 27 Nov 2014 (Local Time) from KANQ Reporting Station
Overcast Overcast  
Wind Chill: 15°   Ceiling: 4600
Heat Index: 23°   Visibility: 10mi
Dew Point: 16°   Wind: 7mph
Humidity: 74%   Direction: 340°NNW
Pressure: 30.32"   Gusts: NA
Location:  41.6594°N, 85.0055°W
Report Text: KANQ 280335Z AUTO 34006KT 10SM OVC046 M05/M09 A3032 RMK
Loading
Personal Weather Stations






























Interactive Weather Map New forecast layout! Learn more

10-Day Weather Forecast

Advertisements
Track Severe Weather on mobile